sensor_id;sensor_type;location;lat;lon;timestamp;P1;durP1;ratioP1;P2;durP2;ratioP2
22754;SDS011;11544;42.020;23.094;2022-10-31T00:02:05;7.15;;;3.30;;
22754;SDS011;11544;42.020;23.094;2022-10-31T00:04:30;5.75;;;3.38;;
22754;SDS011;11544;42.020;23.094;2022-10-31T00:06:56;7.20;;;3.47;;
22754;SDS011;11544;42.020;23.094;2022-10-31T00:09:22;7.03;;;3.28;;
22754;SDS011;11544;42.020;23.094;2022-10-31T00:11:48;5.05;;;2.88;;
22754;SDS011;11544;42.020;23.094;2022-10-31T00:14:13;7.97;;;3.30;;
22754;SDS011;11544;42.020;23.094;2022-10-31T00:16:39;4.43;;;2.47;;
22754;SDS011;11544;42.020;23.094;2022-10-31T00:19:07;3.90;;;2.30;;
22754;SDS011;11544;42.020;23.094;2022-10-31T00:21:33;6.85;;;2.50;;
22754;SDS011;11544;42.020;23.094;2022-10-31T00:24:00;5.10;;;2.25;;
22754;SDS011;11544;42.020;23.094;2022-10-31T00:26:27;5.15;;;2.75;;
22754;SDS011;11544;42.020;23.094;2022-10-31T00:28:53;6.43;;;2.72;;
22754;SDS011;11544;42.020;23.094;2022-10-31T00:31:19;4.97;;;2.10;;
22754;SDS011;11544;42.020;23.094;2022-10-31T00:33:45;7.30;;;2.42;;
22754;SDS011;11544;42.020;23.094;2022-10-31T00:36:15;3.05;;;2.42;;
22754;SDS011;11544;42.020;23.094;2022-10-31T00:38:43;5.50;;;2.33;;
22754;SDS011;11544;42.020;23.094;2022-10-31T00:41:10;5.78;;;2.70;;
22754;SDS011;11544;42.020;23.094;2022-10-31T00:43:39;5.15;;;2.65;;
22754;SDS011;11544;42.020;23.094;2022-10-31T00:46:05;4.63;;;2.38;;
22754;SDS011;11544;42.020;23.094;2022-10-31T00:48:31;3.65;;;2.20;;
22754;SDS011;11544;42.020;23.094;2022-10-31T00:50:56;7.65;;;2.60;;
22754;SDS011;11544;42.020;23.094;2022-10-31T00:53:23;5.65;;;2.88;;
22754;SDS011;11544;42.020;23.094;2022-10-31T00:55:48;3.08;;;2.00;;
22754;SDS011;11544;42.020;23.094;2022-10-31T00:58:14;4.00;;;2.45;;
22754;SDS011;11544;42.020;23.094;2022-10-31T01:00:40;4.78;;;2.38;;
22754;SDS011;11544;42.020;23.094;2022-10-31T01:03:06;5.63;;;2.55;;
22754;SDS011;11544;42.020;23.094;2022-10-31T01:05:32;6.57;;;2.15;;
22754;SDS011;11544;42.020;23.094;2022-10-31T01:07:58;2.80;;;2.00;;
22754;SDS011;11544;42.020;23.094;2022-10-31T01:10:25;2.35;;;1.58;;
22754;SDS011;11544;42.020;23.094;2022-10-31T01:12:51;9.52;;;2.42;;
22754;SDS011;11544;42.020;23.094;2022-10-31T01:15:20;8.43;;;2.30;;
22754;SDS011;11544;42.020;23.094;2022-10-31T01:17:48;7.50;;;3.17;;
22754;SDS011;11544;42.020;23.094;2022-10-31T01:20:14;8.63;;;3.55;;
22754;SDS011;11544;42.020;23.094;2022-10-31T01:22:41;10.70;;;3.95;;
22754;SDS011;11544;42.020;23.094;2022-10-31T01:25:07;7.35;;;4.05;;
22754;SDS011;11544;42.020;23.094;2022-10-31T01:27:34;10.43;;;5.35;;
22754;SDS011;11544;42.020;23.094;2022-10-31T01:29:59;10.35;;;4.72;;
22754;SDS011;11544;42.020;23.094;2022-10-31T01:32:26;7.22;;;4.70;;
22754;SDS011;11544;42.020;23.094;2022-10-31T01:34:54;12.73;;;4.65;;
22754;SDS011;11544;42.020;23.094;2022-10-31T01:37:20;5.95;;;3.78;;
22754;SDS011;11544;42.020;23.094;2022-10-31T01:39:47;8.02;;;4.22;;
22754;SDS011;11544;42.020;23.094;2022-10-31T01:42:18;9.05;;;4.15;;
22754;SDS011;11544;42.020;23.094;2022-10-31T01:44:53;8.25;;;3.92;;
22754;SDS011;11544;42.020;23.094;2022-10-31T01:47:27;9.07;;;4.32;;
22754;SDS011;11544;42.020;23.094;2022-10-31T01:49:56;13.80;;;5.22;;
22754;SDS011;11544;42.020;23.094;2022-10-31T01:52:29;10.88;;;4.60;;
22754;SDS011;11544;42.020;23.094;2022-10-31T01:54:59;11.43;;;5.72;;
22754;SDS011;11544;42.020;23.094;2022-10-31T01:57:31;7.05;;;4.80;;
22754;SDS011;11544;42.020;23.094;2022-10-31T01:59:59;10.55;;;4.68;;
22754;SDS011;11544;42.020;23.094;2022-10-31T02:02:38;9.05;;;4.50;;
22754;SDS011;11544;42.020;23.094;2022-10-31T02:05:06;10.15;;;4.90;;
22754;SDS011;11544;42.020;23.094;2022-10-31T02:08:19;9.95;;;5.07;;
22754;SDS011;11544;42.020;23.094;2022-10-31T02:10:49;11.15;;;5.03;;
22754;SDS011;11544;42.020;23.094;2022-10-31T02:13:15;12.00;;;5.00;;
22754;SDS011;11544;42.020;23.094;2022-10-31T02:15:46;10.27;;;4.88;;
22754;SDS011;11544;42.020;23.094;2022-10-31T02:18:14;11.02;;;4.57;;
22754;SDS011;11544;42.020;23.094;2022-10-31T02:20:46;7.20;;;4.38;;
22754;SDS011;11544;42.020;23.094;2022-10-31T02:32:00;8.65;;;4.22;;
22754;SDS011;11544;42.020;23.094;2022-10-31T02:34:32;9.70;;;4.43;;
22754;SDS011;11544;42.020;23.094;2022-10-31T02:37:08;7.15;;;3.80;;
22754;SDS011;11544;42.020;23.094;2022-10-31T02:39:42;8.75;;;4.38;;
22754;SDS011;11544;42.020;23.094;2022-10-31T02:42:28;7.28;;;3.95;;
22754;SDS011;11544;42.020;23.094;2022-10-31T02:45:14;7.70;;;4.03;;
22754;SDS011;11544;42.020;23.094;2022-10-31T02:47:50;7.47;;;4.43;;
22754;SDS011;11544;42.020;23.094;2022-10-31T02:50:23;10.00;;;4.20;;
22754;SDS011;11544;42.020;23.094;2022-10-31T02:52:53;9.40;;;4.82;;
22754;SDS011;11544;42.020;23.094;2022-10-31T02:57:48;8.32;;;4.35;;
22754;SDS011;11544;42.020;23.094;2022-10-31T03:00:15;6.60;;;4.25;;
22754;SDS011;11544;42.020;23.094;2022-10-31T03:10:47;6.45;;;4.38;;
22754;SDS011;11544;42.020;23.094;2022-10-31T03:19:15;8.35;;;4.40;;
22754;SDS011;11544;42.020;23.094;2022-10-31T03:21:53;5.75;;;3.55;;
22754;SDS011;11544;42.020;23.094;2022-10-31T03:24:25;7.70;;;4.00;;
22754;SDS011;11544;42.020;23.094;2022-10-31T03:26:57;7.93;;;3.97;;
22754;SDS011;11544;42.020;23.094;2022-10-31T03:29:26;9.48;;;4.20;;
22754;SDS011;11544;42.020;23.094;2022-10-31T03:32:10;7.95;;;3.80;;
22754;SDS011;11544;42.020;23.094;2022-10-31T03:34:37;9.60;;;4.38;;
22754;SDS011;11544;42.020;23.094;2022-10-31T03:37:07;7.90;;;5.15;;
22754;SDS011;11544;42.020;23.094;2022-10-31T03:39:36;6.65;;;3.70;;
22754;SDS011;11544;42.020;23.094;2022-10-31T03:42:10;6.15;;;3.90;;
22754;SDS011;11544;42.020;23.094;2022-10-31T03:44:40;9.32;;;4.13;;
22754;SDS011;11544;42.020;23.094;2022-10-31T03:47:11;9.95;;;4.57;;
22754;SDS011;11544;42.020;23.094;2022-10-31T03:49:38;7.20;;;3.55;;
22754;SDS011;11544;42.020;23.094;2022-10-31T03:54:32;9.90;;;4.00;;
22754;SDS011;11544;42.020;23.094;2022-10-31T03:57:09;7.28;;;3.92;;
22754;SDS011;11544;42.020;23.094;2022-10-31T03:59:44;5.10;;;3.63;;
22754;SDS011;11544;42.020;23.094;2022-10-31T04:02:18;6.68;;;3.72;;
22754;SDS011;11544;42.020;23.094;2022-10-31T04:04:47;9.45;;;4.90;;
22754;SDS011;11544;42.020;23.094;2022-10-31T04:07:15;6.32;;;3.65;;
22754;SDS011;11544;42.020;23.094;2022-10-31T04:09:43;6.97;;;3.70;;
22754;SDS011;11544;42.020;23.094;2022-10-31T04:12:12;7.00;;;4.07;;
22754;SDS011;11544;42.020;23.094;2022-10-31T04:15:01;6.03;;;3.92;;
22754;SDS011;11544;42.020;23.094;2022-10-31T04:17:29;6.28;;;4.10;;
22754;SDS011;11544;42.020;23.094;2022-10-31T04:19:59;6.00;;;3.78;;
22754;SDS011;11544;42.020;23.094;2022-10-31T04:22:27;9.93;;;4.70;;
22754;SDS011;11544;42.020;23.094;2022-10-31T04:24:52;8.05;;;3.72;;
22754;SDS011;11544;42.020;23.094;2022-10-31T04:27:18;7.65;;;3.75;;
22754;SDS011;11544;42.020;23.094;2022-10-31T04:29:44;7.65;;;3.22;;
22754;SDS011;11544;42.020;23.094;2022-10-31T04:32:11;8.77;;;3.83;;
22754;SDS011;11544;42.020;23.094;2022-10-31T04:34:38;9.73;;;3.78;;
22754;SDS011;11544;42.020;23.094;2022-10-31T04:37:04;8.68;;;4.03;;
22754;SDS011;11544;42.020;23.094;2022-10-31T04:39:31;5.88;;;3.95;;
22754;SDS011;11544;42.020;23.094;2022-10-31T04:42:19;8.88;;;3.92;;
22754;SDS011;11544;42.020;23.094;2022-10-31T04:44:45;8.90;;;4.30;;
22754;SDS011;11544;42.020;23.094;2022-10-31T04:47:11;6.57;;;4.38;;
22754;SDS011;11544;42.020;23.094;2022-10-31T04:49:36;8.25;;;4.70;;
22754;SDS011;11544;42.020;23.094;2022-10-31T04:52:02;9.00;;;4.13;;
22754;SDS011;11544;42.020;23.094;2022-10-31T04:54:28;9.75;;;4.45;;
22754;SDS011;11544;42.020;23.094;2022-10-31T04:57:16;14.13;;;5.00;;
22754;SDS011;11544;42.020;23.094;2022-10-31T04:59:43;6.43;;;4.35;;
22754;SDS011;11544;42.020;23.094;2022-10-31T05:02:09;8.85;;;4.50;;
22754;SDS011;11544;42.020;23.094;2022-10-31T05:04:43;10.38;;;5.82;;
22754;SDS011;11544;42.020;23.094;2022-10-31T05:07:09;9.43;;;5.10;;
22754;SDS011;11544;42.020;23.094;2022-10-31T05:09:34;9.45;;;5.40;;
22754;SDS011;11544;42.020;23.094;2022-10-31T05:12:00;10.13;;;5.03;;
22754;SDS011;11544;42.020;23.094;2022-10-31T05:14:46;23.55;;;8.18;;
22754;SDS011;11544;42.020;23.094;2022-10-31T05:17:31;21.05;;;8.35;;
22754;SDS011;11544;42.020;23.094;2022-10-31T05:20:16;18.85;;;8.20;;
22754;SDS011;11544;42.020;23.094;2022-10-31T05:23:01;15.63;;;6.68;;
22754;SDS011;11544;42.020;23.094;2022-10-31T05:25:27;9.27;;;4.15;;
22754;SDS011;11544;42.020;23.094;2022-10-31T05:27:56;7.43;;;3.47;;
22754;SDS011;11544;42.020;23.094;2022-10-31T05:30:31;10.30;;;4.55;;
22754;SDS011;11544;42.020;23.094;2022-10-31T05:32:57;9.80;;;4.50;;
22754;SDS011;11544;42.020;23.094;2022-10-31T05:35:50;9.60;;;4.88;;
22754;SDS011;11544;42.020;23.094;2022-10-31T05:38:54;19.15;;;6.40;;
22754;SDS011;11544;42.020;23.094;2022-10-31T05:41:24;8.50;;;4.40;;
22754;SDS011;11544;42.020;23.094;2022-10-31T05:43:58;11.88;;;4.30;;
22754;SDS011;11544;42.020;23.094;2022-10-31T05:46:27;13.25;;;5.20;;
22754;SDS011;11544;42.020;23.094;2022-10-31T05:49:21;9.63;;;4.38;;
22754;SDS011;11544;42.020;23.094;2022-10-31T05:51:55;9.02;;;4.18;;
22754;SDS011;11544;42.020;23.094;2022-10-31T05:54:29;9.68;;;4.55;;
22754;SDS011;11544;42.020;23.094;2022-10-31T05:57:18;11.77;;;4.68;;
22754;SDS011;11544;42.020;23.094;2022-10-31T05:59:44;11.68;;;4.43;;
22754;SDS011;11544;42.020;23.094;2022-10-31T06:02:15;13.60;;;5.00;;
22754;SDS011;11544;42.020;23.094;2022-10-31T06:05:00;12.45;;;5.68;;
22754;SDS011;11544;42.020;23.094;2022-10-31T06:07:26;12.32;;;6.07;;
22754;SDS011;11544;42.020;23.094;2022-10-31T06:09:52;9.68;;;5.53;;
22754;SDS011;11544;42.020;23.094;2022-10-31T06:12:20;11.15;;;5.07;;
22754;SDS011;11544;42.020;23.094;2022-10-31T06:15:04;10.57;;;5.10;;
22754;SDS011;11544;42.020;23.094;2022-10-31T06:17:31;6.88;;;4.32;;
22754;SDS011;11544;42.020;23.094;2022-10-31T06:20:19;8.70;;;4.93;;
22754;SDS011;11544;42.020;23.094;2022-10-31T06:22:54;11.00;;;5.47;;
22754;SDS011;11544;42.020;23.094;2022-10-31T06:25:20;13.38;;;5.70;;
22754;SDS011;11544;42.020;23.094;2022-10-31T06:27:48;13.40;;;5.15;;
22754;SDS011;11544;42.020;23.094;2022-10-31T06:30:14;12.48;;;6.65;;
22754;SDS011;11544;42.020;23.094;2022-10-31T06:32:44;16.27;;;8.02;;
22754;SDS011;11544;42.020;23.094;2022-10-31T06:35:10;17.27;;;6.80;;
22754;SDS011;11544;42.020;23.094;2022-10-31T06:37:36;13.05;;;7.30;;
22754;SDS011;11544;42.020;23.094;2022-10-31T06:40:15;19.48;;;8.25;;
22754;SDS011;11544;42.020;23.094;2022-10-31T06:43:16;16.75;;;6.80;;
22754;SDS011;11544;42.020;23.094;2022-10-31T06:45:44;22.13;;;7.97;;
22754;SDS011;11544;42.020;23.094;2022-10-31T06:48:28;19.35;;;8.38;;
22754;SDS011;11544;42.020;23.094;2022-10-31T06:51:17;21.38;;;9.05;;
22754;SDS011;11544;42.020;23.094;2022-10-31T06:53:43;22.83;;;7.60;;
22754;SDS011;11544;42.020;23.094;2022-10-31T06:56:11;16.38;;;8.93;;
22754;SDS011;11544;42.020;23.094;2022-10-31T06:58:43;13.88;;;7.95;;
22754;SDS011;11544;42.020;23.094;2022-10-31T07:01:10;15.25;;;8.52;;
22754;SDS011;11544;42.020;23.094;2022-10-31T07:03:36;13.63;;;8.35;;
22754;SDS011;11544;42.020;23.094;2022-10-31T07:06:02;17.75;;;8.13;;
22754;SDS011;11544;42.020;23.094;2022-10-31T07:08:28;21.52;;;9.30;;
22754;SDS011;11544;42.020;23.094;2022-10-31T07:10:55;13.70;;;7.22;;
22754;SDS011;11544;42.020;23.094;2022-10-31T07:13:23;16.13;;;7.82;;
22754;SDS011;11544;42.020;23.094;2022-10-31T07:15:59;15.02;;;7.05;;
22754;SDS011;11544;42.020;23.094;2022-10-31T07:18:27;21.63;;;8.15;;
22754;SDS011;11544;42.020;23.094;2022-10-31T07:20:53;21.67;;;8.80;;
22754;SDS011;11544;42.020;23.094;2022-10-31T07:23:19;26.25;;;11.18;;
22754;SDS011;11544;42.020;23.094;2022-10-31T07:25:56;20.67;;;9.45;;
22754;SDS011;11544;42.020;23.094;2022-10-31T07:28:30;16.83;;;9.70;;
22754;SDS011;11544;42.020;23.094;2022-10-31T07:30:56;21.58;;;9.05;;
22754;SDS011;11544;42.020;23.094;2022-10-31T07:33:23;20.13;;;13.27;;
22754;SDS011;11544;42.020;23.094;2022-10-31T07:36:12;26.05;;;11.77;;
22754;SDS011;11544;42.020;23.094;2022-10-31T07:38:41;20.45;;;9.98;;
22754;SDS011;11544;42.020;23.094;2022-10-31T07:41:07;17.95;;;10.52;;
22754;SDS011;11544;42.020;23.094;2022-10-31T07:43:38;19.42;;;10.32;;
22754;SDS011;11544;42.020;23.094;2022-10-31T07:46:41;20.33;;;10.05;;
22754;SDS011;11544;42.020;23.094;2022-10-31T07:49:25;14.02;;;7.90;;
22754;SDS011;11544;42.020;23.094;2022-10-31T07:52:32;19.55;;;10.07;;
22754;SDS011;11544;42.020;23.094;2022-10-31T07:55:31;18.88;;;9.90;;
22754;SDS011;11544;42.020;23.094;2022-10-31T07:58:02;25.60;;;10.05;;
22754;SDS011;11544;42.020;23.094;2022-10-31T08:00:30;20.52;;;10.60;;
22754;SDS011;11544;42.020;23.094;2022-10-31T08:03:00;29.33;;;11.13;;
22754;SDS011;11544;42.020;23.094;2022-10-31T08:06:00;17.45;;;8.52;;
22754;SDS011;11544;42.020;23.094;2022-10-31T08:08:45;13.82;;;7.97;;
22754;SDS011;11544;42.020;23.094;2022-10-31T08:11:12;10.80;;;6.75;;
22754;SDS011;11544;42.020;23.094;2022-10-31T08:13:38;11.95;;;7.10;;
22754;SDS011;11544;42.020;23.094;2022-10-31T08:16:04;13.27;;;6.00;;
22754;SDS011;11544;42.020;23.094;2022-10-31T08:18:36;19.38;;;7.70;;
22754;SDS011;11544;42.020;23.094;2022-10-31T08:21:04;15.48;;;7.80;;
22754;SDS011;11544;42.020;23.094;2022-10-31T08:23:38;11.95;;;7.13;;
22754;SDS011;11544;42.020;23.094;2022-10-31T08:26:04;17.73;;;6.85;;
22754;SDS011;11544;42.020;23.094;2022-10-31T08:28:31;14.52;;;7.60;;
22754;SDS011;11544;42.020;23.094;2022-10-31T08:30:59;15.30;;;7.18;;
22754;SDS011;11544;42.020;23.094;2022-10-31T08:33:40;17.52;;;6.97;;
22754;SDS011;11544;42.020;23.094;2022-10-31T08:36:18;18.48;;;8.15;;
22754;SDS011;11544;42.020;23.094;2022-10-31T08:38:53;13.32;;;6.47;;
22754;SDS011;11544;42.020;23.094;2022-10-31T08:41:19;11.70;;;5.30;;
22754;SDS011;11544;42.020;23.094;2022-10-31T08:43:45;11.65;;;5.97;;
22754;SDS011;11544;42.020;23.094;2022-10-31T08:46:17;13.48;;;5.70;;
22754;SDS011;11544;42.020;23.094;2022-10-31T08:48:49;10.27;;;5.47;;
22754;SDS011;11544;42.020;23.094;2022-10-31T08:51:23;9.63;;;5.45;;
22754;SDS011;11544;42.020;23.094;2022-10-31T08:53:54;7.75;;;4.88;;
22754;SDS011;11544;42.020;23.094;2022-10-31T08:56:32;9.00;;;4.03;;
22754;SDS011;11544;42.020;23.094;2022-10-31T08:58:59;6.72;;;3.47;;
22754;SDS011;11544;42.020;23.094;2022-10-31T09:01:49;9.82;;;4.05;;
22754;SDS011;11544;42.020;23.094;2022-10-31T09:11:39;13.10;;;5.75;;
22754;SDS011;11544;42.020;23.094;2022-10-31T09:15:15;13.65;;;4.97;;
22754;SDS011;11544;42.020;23.094;2022-10-31T09:22:18;9.57;;;5.30;;
22754;SDS011;11544;42.020;23.094;2022-10-31T09:24:51;12.70;;;5.30;;
22754;SDS011;11544;42.020;23.094;2022-10-31T09:27:25;11.48;;;5.03;;
22754;SDS011;11544;42.020;23.094;2022-10-31T09:29:59;9.18;;;4.25;;
22754;SDS011;11544;42.020;23.094;2022-10-31T09:32:35;11.77;;;4.30;;
22754;SDS011;11544;42.020;23.094;2022-10-31T09:35:02;9.73;;;4.30;;
22754;SDS011;11544;42.020;23.094;2022-10-31T09:37:35;7.53;;;3.35;;
22754;SDS011;11544;42.020;23.094;2022-10-31T09:40:03;9.52;;;4.15;;
22754;SDS011;11544;42.020;23.094;2022-10-31T09:48:36;8.15;;;3.13;;
22754;SDS011;11544;42.020;23.094;2022-10-31T09:50:49;7.78;;;3.50;;
22754;SDS011;11544;42.020;23.094;2022-10-31T09:56:11;7.82;;;3.53;;
22754;SDS011;11544;42.020;23.094;2022-10-31T09:58:47;7.18;;;3.38;;
22754;SDS011;11544;42.020;23.094;2022-10-31T10:04:03;6.13;;;3.35;;
22754;SDS011;11544;42.020;23.094;2022-10-31T10:07:05;8.57;;;3.63;;
22754;SDS011;11544;42.020;23.094;2022-10-31T10:10:13;4.93;;;2.70;;
22754;SDS011;11544;42.020;23.094;2022-10-31T10:13:20;5.43;;;3.22;;
22754;SDS011;11544;42.020;23.094;2022-10-31T10:19:07;6.50;;;2.92;;
22754;SDS011;11544;42.020;23.094;2022-10-31T10:21:50;5.85;;;2.60;;
22754;SDS011;11544;42.020;23.094;2022-10-31T10:32:40;4.65;;;2.38;;
22754;SDS011;11544;42.020;23.094;2022-10-31T10:37:43;6.65;;;2.95;;
22754;SDS011;11544;42.020;23.094;2022-10-31T10:43:12;5.53;;;2.80;;
22754;SDS011;11544;42.020;23.094;2022-10-31T10:46:13;5.20;;;3.08;;
22754;SDS011;11544;42.020;23.094;2022-10-31T10:51:59;3.22;;;2.22;;
22754;SDS011;11544;42.020;23.094;2022-10-31T11:00:17;4.45;;;2.35;;
22754;SDS011;11544;42.020;23.094;2022-10-31T11:02:44;6.72;;;2.72;;
22754;SDS011;11544;42.020;23.094;2022-10-31T11:05:24;5.80;;;2.58;;
22754;SDS011;11544;42.020;23.094;2022-10-31T11:07:55;5.82;;;2.58;;
22754;SDS011;11544;42.020;23.094;2022-10-31T11:10:21;8.82;;;2.50;;
22754;SDS011;11544;42.020;23.094;2022-10-31T11:12:58;7.05;;;2.42;;
22754;SDS011;11544;42.020;23.094;2022-10-31T11:15:28;11.70;;;2.33;;
22754;SDS011;11544;42.020;23.094;2022-10-31T11:18:01;8.57;;;2.50;;
22754;SDS011;11544;42.020;23.094;2022-10-31T11:20:33;4.78;;;1.90;;
22754;SDS011;11544;42.020;23.094;2022-10-31T11:23:05;3.80;;;2.00;;
22754;SDS011;11544;42.020;23.094;2022-10-31T11:25:50;6.13;;;2.20;;
22754;SDS011;11544;42.020;23.094;2022-10-31T11:28:21;4.32;;;1.83;;
22754;SDS011;11544;42.020;23.094;2022-10-31T11:33:28;5.18;;;2.70;;
22754;SDS011;11544;42.020;23.094;2022-10-31T11:36:01;4.45;;;2.35;;
22754;SDS011;11544;42.020;23.094;2022-10-31T11:38:33;6.88;;;1.77;;
22754;SDS011;11544;42.020;23.094;2022-10-31T11:43:51;2.72;;;1.17;;
22754;SDS011;11544;42.020;23.094;2022-10-31T11:46:34;3.80;;;1.35;;
22754;SDS011;11544;42.020;23.094;2022-10-31T11:49:03;7.15;;;1.38;;
22754;SDS011;11544;42.020;23.094;2022-10-31T11:51:33;6.88;;;1.40;;
22754;SDS011;11544;42.020;23.094;2022-10-31T11:54:01;4.88;;;1.50;;
22754;SDS011;11544;42.020;23.094;2022-10-31T11:56:39;7.03;;;2.00;;
22754;SDS011;11544;42.020;23.094;2022-10-31T11:59:16;5.35;;;1.55;;
22754;SDS011;11544;42.020;23.094;2022-10-31T12:01:48;3.17;;;1.20;;
22754;SDS011;11544;42.020;23.094;2022-10-31T12:05:01;4.28;;;1.98;;
22754;SDS011;11544;42.020;23.094;2022-10-31T12:07:38;3.80;;;1.88;;
22754;SDS011;11544;42.020;23.094;2022-10-31T12:10:11;3.15;;;1.25;;
22754;SDS011;11544;42.020;23.094;2022-10-31T12:13:29;5.65;;;1.48;;
22754;SDS011;11544;42.020;23.094;2022-10-31T12:15:41;8.02;;;1.60;;
22754;SDS011;11544;42.020;23.094;2022-10-31T12:18:45;3.50;;;1.70;;
22754;SDS011;11544;42.020;23.094;2022-10-31T12:35:19;4.20;;;1.15;;
22754;SDS011;11544;42.020;23.094;2022-10-31T12:40:50;1.75;;;0.70;;
22754;SDS011;11544;42.020;23.094;2022-10-31T12:52:35;4.05;;;1.02;;
22754;SDS011;11544;42.020;23.094;2022-10-31T12:55:29;3.10;;;1.15;;
22754;SDS011;11544;42.020;23.094;2022-10-31T13:06:43;3.70;;;1.17;;
22754;SDS011;11544;42.020;23.094;2022-10-31T13:09:15;2.25;;;1.10;;
22754;SDS011;11544;42.020;23.094;2022-10-31T13:11:48;2.58;;;1.08;;
22754;SDS011;11544;42.020;23.094;2022-10-31T13:14:36;2.63;;;1.02;;
22754;SDS011;11544;42.020;23.094;2022-10-31T13:17:08;3.85;;;1.40;;
22754;SDS011;11544;42.020;23.094;2022-10-31T13:19:47;1.50;;;0.73;;
22754;SDS011;11544;42.020;23.094;2022-10-31T13:22:20;2.85;;;0.80;;
22754;SDS011;11544;42.020;23.094;2022-10-31T13:27:48;2.75;;;1.10;;
22754;SDS011;11544;42.020;23.094;2022-10-31T13:32:51;3.60;;;0.80;;
22754;SDS011;11544;42.020;23.094;2022-10-31T13:35:41;1.02;;;0.80;;
22754;SDS011;11544;42.020;23.094;2022-10-31T13:38:19;1.30;;;0.70;;
22754;SDS011;11544;42.020;23.094;2022-10-31T13:44:22;3.30;;;1.30;;
22754;SDS011;11544;42.020;23.094;2022-10-31T13:46:54;3.65;;;1.10;;
22754;SDS011;11544;42.020;23.094;2022-10-31T13:54:39;4.93;;;1.15;;
22754;SDS011;11544;42.020;23.094;2022-10-31T14:00:24;1.50;;;0.75;;
22754;SDS011;11544;42.020;23.094;2022-10-31T14:02:52;3.10;;;0.80;;
22754;SDS011;11544;42.020;23.094;2022-10-31T14:07:58;2.90;;;1.00;;
22754;SDS011;11544;42.020;23.094;2022-10-31T14:10:31;1.90;;;1.15;;
22754;SDS011;11544;42.020;23.094;2022-10-31T14:13:08;2.67;;;1.08;;
22754;SDS011;11544;42.020;23.094;2022-10-31T14:15:42;3.70;;;1.13;;
22754;SDS011;11544;42.020;23.094;2022-10-31T14:23:48;3.95;;;1.20;;
22754;SDS011;11544;42.020;23.094;2022-10-31T14:28:57;3.65;;;1.00;;
22754;SDS011;11544;42.020;23.094;2022-10-31T14:33:52;2.30;;;1.00;;
22754;SDS011;11544;42.020;23.094;2022-10-31T14:36:21;7.00;;;1.00;;
22754;SDS011;11544;42.020;23.094;2022-10-31T14:39:01;2.35;;;0.93;;
22754;SDS011;11544;42.020;23.094;2022-10-31T14:41:53;2.95;;;1.08;;
22754;SDS011;11544;42.020;23.094;2022-10-31T14:47:16;9.15;;;1.20;;
22754;SDS011;11544;42.020;23.094;2022-10-31T14:52:47;3.13;;;0.90;;
22754;SDS011;11544;42.020;23.094;2022-10-31T14:55:15;7.35;;;1.02;;
22754;SDS011;11544;42.020;23.094;2022-10-31T14:57:50;4.78;;;1.20;;
22754;SDS011;11544;42.020;23.094;2022-10-31T15:00:22;2.58;;;1.05;;
22754;SDS011;11544;42.020;23.094;2022-10-31T15:02:53;2.13;;;1.08;;
22754;SDS011;11544;42.020;23.094;2022-10-31T15:05:29;2.75;;;0.90;;
22754;SDS011;11544;42.020;23.094;2022-10-31T15:07:57;2.70;;;1.08;;
22754;SDS011;11544;42.020;23.094;2022-10-31T15:10:28;3.17;;;1.35;;
22754;SDS011;11544;42.020;23.094;2022-10-31T15:13:10;2.92;;;1.25;;
22754;SDS011;11544;42.020;23.094;2022-10-31T15:15:44;5.97;;;1.80;;
22754;SDS011;11544;42.020;23.094;2022-10-31T15:18:17;2.92;;;0.82;;
22754;SDS011;11544;42.020;23.094;2022-10-31T15:20:46;2.92;;;1.00;;
22754;SDS011;11544;42.020;23.094;2022-10-31T15:23:31;2.60;;;0.90;;
22754;SDS011;11544;42.020;23.094;2022-10-31T15:26:06;3.78;;;0.80;;
22754;SDS011;11544;42.020;23.094;2022-10-31T15:28:34;3.17;;;1.23;;
22754;SDS011;11544;42.020;23.094;2022-10-31T15:31:01;2.67;;;1.25;;
22754;SDS011;11544;42.020;23.094;2022-10-31T15:33:28;2.05;;;1.10;;
22754;SDS011;11544;42.020;23.094;2022-10-31T15:36:04;4.68;;;1.15;;
22754;SDS011;11544;42.020;23.094;2022-10-31T15:38:30;1.90;;;0.93;;
22754;SDS011;11544;42.020;23.094;2022-10-31T15:41:03;3.80;;;1.17;;
22754;SDS011;11544;42.020;23.094;2022-10-31T15:43:46;2.75;;;1.20;;
22754;SDS011;11544;42.020;23.094;2022-10-31T15:46:12;4.50;;;1.42;;
22754;SDS011;11544;42.020;23.094;2022-10-31T15:48:38;4.25;;;1.42;;
22754;SDS011;11544;42.020;23.094;2022-10-31T15:51:09;3.85;;;1.42;;
22754;SDS011;11544;42.020;23.094;2022-10-31T15:53:36;2.72;;;1.40;;
22754;SDS011;11544;42.020;23.094;2022-10-31T15:56:08;5.55;;;1.80;;
22754;SDS011;11544;42.020;23.094;2022-10-31T15:58:45;6.57;;;1.63;;
22754;SDS011;11544;42.020;23.094;2022-10-31T16:01:26;3.92;;;1.60;;
22754;SDS011;11544;42.020;23.094;2022-10-31T16:03:58;5.85;;;1.45;;
22754;SDS011;11544;42.020;23.094;2022-10-31T16:06:27;3.45;;;1.42;;
22754;SDS011;11544;42.020;23.094;2022-10-31T16:08:52;2.10;;;1.17;;
22754;SDS011;11544;42.020;23.094;2022-10-31T16:11:23;3.70;;;1.60;;
22754;SDS011;11544;42.020;23.094;2022-10-31T16:13:59;3.30;;;1.10;;
22754;SDS011;11544;42.020;23.094;2022-10-31T16:16:29;4.28;;;1.20;;
22754;SDS011;11544;42.020;23.094;2022-10-31T16:18:57;6.70;;;1.33;;
22754;SDS011;11544;42.020;23.094;2022-10-31T16:21:35;3.78;;;1.40;;
22754;SDS011;11544;42.020;23.094;2022-10-31T16:26:48;3.08;;;1.50;;
22754;SDS011;11544;42.020;23.094;2022-10-31T16:29:28;2.97;;;1.50;;
22754;SDS011;11544;42.020;23.094;2022-10-31T16:31:58;3.85;;;1.45;;
22754;SDS011;11544;42.020;23.094;2022-10-31T16:34:24;5.10;;;1.65;;
22754;SDS011;11544;42.020;23.094;2022-10-31T16:36:50;5.88;;;1.30;;
22754;SDS011;11544;42.020;23.094;2022-10-31T16:39:27;5.25;;;1.35;;
22754;SDS011;11544;42.020;23.094;2022-10-31T16:41:54;4.43;;;1.38;;
22754;SDS011;11544;42.020;23.094;2022-10-31T16:44:28;4.03;;;1.77;;
22754;SDS011;11544;42.020;23.094;2022-10-31T16:47:28;3.88;;;1.63;;
22754;SDS011;11544;42.020;23.094;2022-10-31T16:49:47;4.15;;;1.50;;
22754;SDS011;11544;42.020;23.094;2022-10-31T16:52:14;5.95;;;2.03;;
22754;SDS011;11544;42.020;23.094;2022-10-31T16:54:40;3.97;;;1.77;;
22754;SDS011;11544;42.020;23.094;2022-10-31T16:57:06;6.65;;;1.98;;
22754;SDS011;11544;42.020;23.094;2022-10-31T16:59:40;3.65;;;1.90;;
22754;SDS011;11544;42.020;23.094;2022-10-31T17:02:06;1.85;;;1.63;;
22754;SDS011;11544;42.020;23.094;2022-10-31T17:04:41;7.82;;;2.03;;
22754;SDS011;11544;42.020;23.094;2022-10-31T17:07:07;6.65;;;1.83;;
22754;SDS011;11544;42.020;23.094;2022-10-31T17:09:36;4.88;;;3.00;;
22754;SDS011;11544;42.020;23.094;2022-10-31T17:12:02;6.70;;;2.60;;
22754;SDS011;11544;42.020;23.094;2022-10-31T17:14:41;5.82;;;2.45;;
22754;SDS011;11544;42.020;23.094;2022-10-31T17:17:11;3.30;;;1.77;;
22754;SDS011;11544;42.020;23.094;2022-10-31T17:19:42;4.72;;;2.20;;
22754;SDS011;11544;42.020;23.094;2022-10-31T17:22:10;6.63;;;2.60;;
22754;SDS011;11544;42.020;23.094;2022-10-31T17:24:37;6.85;;;2.60;;
22754;SDS011;11544;42.020;23.094;2022-10-31T17:27:03;2.80;;;1.63;;
22754;SDS011;11544;42.020;23.094;2022-10-31T17:29:29;6.57;;;2.10;;
22754;SDS011;11544;42.020;23.094;2022-10-31T17:31:58;4.40;;;1.77;;
22754;SDS011;11544;42.020;23.094;2022-10-31T17:34:28;7.05;;;1.52;;
22754;SDS011;11544;42.020;23.094;2022-10-31T17:37:02;5.93;;;1.42;;
22754;SDS011;11544;42.020;23.094;2022-10-31T17:39:30;4.28;;;1.60;;
22754;SDS011;11544;42.020;23.094;2022-10-31T17:41:56;2.03;;;1.45;;